sensor_id;sensor_type;location;lat;lon;timestamp;P1;durP1;ratioP1;P2;durP2;ratioP2
47239;SDS011;32978;53.586;10.052;2022-08-04T00:02:02;7.18;;;2.47;;
47239;SDS011;32978;53.586;10.052;2022-08-04T00:07:09;9.68;;;2.20;;
47239;SDS011;32978;53.586;10.052;2022-08-04T00:12:10;13.38;;;3.03;;
47239;SDS011;32978;53.586;10.052;2022-08-04T00:17:07;6.88;;;2.45;;
47239;SDS011;32978;53.586;10.052;2022-08-04T00:22:03;5.63;;;1.90;;
47239;SDS011;32978;53.586;10.052;2022-08-04T00:27:00;11.52;;;2.60;;
47239;SDS011;32978;53.586;10.052;2022-08-04T00:31:57;9.55;;;2.83;;
47239;SDS011;32978;53.586;10.052;2022-08-04T00:36:54;5.80;;;2.08;;
47239;SDS011;32978;53.586;10.052;2022-08-04T00:47:55;6.53;;;2.42;;
47239;SDS011;32978;53.586;10.052;2022-08-04T00:52:27;9.80;;;2.25;;
47239;SDS011;32978;53.586;10.052;2022-08-04T00:57:30;8.73;;;2.13;;
47239;SDS011;32978;53.586;10.052;2022-08-04T01:02:34;6.03;;;2.50;;
47239;SDS011;32978;53.586;10.052;2022-08-04T01:07:46;7.32;;;2.15;;
47239;SDS011;32978;53.586;10.052;2022-08-04T01:18:03;6.28;;;2.47;;
47239;SDS011;32978;53.586;10.052;2022-08-04T01:33:07;6.80;;;2.55;;
47239;SDS011;32978;53.586;10.052;2022-08-04T01:48:13;7.90;;;2.03;;
47239;SDS011;32978;53.586;10.052;2022-08-04T01:53:10;7.22;;;1.67;;
47239;SDS011;32978;53.586;10.052;2022-08-04T01:58:06;7.72;;;1.95;;
47239;SDS011;32978;53.586;10.052;2022-08-04T02:03:03;8.30;;;1.77;;
47239;SDS011;32978;53.586;10.052;2022-08-04T02:08:06;5.18;;;2.00;;
47239;SDS011;32978;53.586;10.052;2022-08-04T02:18:39;6.55;;;1.90;;
47239;SDS011;32978;53.586;10.052;2022-08-04T02:23:39;5.07;;;2.10;;
47239;SDS011;32978;53.586;10.052;2022-08-04T02:28:42;7.68;;;2.38;;
47239;SDS011;32978;53.586;10.052;2022-08-04T02:33:43;7.00;;;2.40;;
47239;SDS011;32978;53.586;10.052;2022-08-04T02:43:36;8.10;;;2.85;;
47239;SDS011;32978;53.586;10.052;2022-08-04T02:48:48;7.30;;;2.00;;
47239;SDS011;32978;53.586;10.052;2022-08-04T02:53:45;8.70;;;2.20;;
47239;SDS011;32978;53.586;10.052;2022-08-04T02:58:42;4.50;;;2.10;;
47239;SDS011;32978;53.586;10.052;2022-08-04T03:03:54;4.50;;;2.45;;
47239;SDS011;32978;53.586;10.052;2022-08-04T03:39:49;10.40;;;3.05;;
47239;SDS011;32978;53.586;10.052;2022-08-04T03:44:57;8.82;;;2.90;;
47239;SDS011;32978;53.586;10.052;2022-08-04T04:00:43;7.22;;;2.50;;
47239;SDS011;32978;53.586;10.052;2022-08-04T04:16:07;5.57;;;2.58;;
47239;SDS011;32978;53.586;10.052;2022-08-04T04:21:14;7.60;;;2.03;;
47239;SDS011;32978;53.586;10.052;2022-08-04T04:31:32;8.52;;;2.42;;
47239;SDS011;32978;53.586;10.052;2022-08-04T04:46:45;6.22;;;2.42;;
47239;SDS011;32978;53.586;10.052;2022-08-04T04:51:47;7.05;;;3.28;;
47239;SDS011;32978;53.586;10.052;2022-08-04T04:57:03;7.50;;;2.72;;
47239;SDS011;32978;53.586;10.052;2022-08-04T05:07:05;6.68;;;2.65;;
47239;SDS011;32978;53.586;10.052;2022-08-04T05:12:13;5.97;;;2.60;;
47239;SDS011;32978;53.586;10.052;2022-08-04T05:17:37;4.43;;;2.33;;
47239;SDS011;32978;53.586;10.052;2022-08-04T05:22:44;5.00;;;2.70;;
47239;SDS011;32978;53.586;10.052;2022-08-04T05:27:48;10.98;;;2.65;;
47239;SDS011;32978;53.586;10.052;2022-08-04T05:32:47;6.75;;;3.08;;
47239;SDS011;32978;53.586;10.052;2022-08-04T05:37:44;5.20;;;2.08;;
47239;SDS011;32978;53.586;10.052;2022-08-04T05:42:56;9.20;;;3.10;;
47239;SDS011;32978;53.586;10.052;2022-08-04T05:47:53;5.72;;;2.95;;
47239;SDS011;32978;53.586;10.052;2022-08-04T05:52:49;6.97;;;2.15;;
47239;SDS011;32978;53.586;10.052;2022-08-04T05:57:56;5.00;;;2.10;;
47239;SDS011;32978;53.586;10.052;2022-08-04T06:02:54;6.45;;;2.45;;
47239;SDS011;32978;53.586;10.052;2022-08-04T06:07:51;7.05;;;2.42;;
47239;SDS011;32978;53.586;10.052;2022-08-04T06:13:10;5.70;;;2.03;;
47239;SDS011;32978;53.586;10.052;2022-08-04T06:18:28;6.88;;;2.70;;
47239;SDS011;32978;53.586;10.052;2022-08-04T06:23:45;7.05;;;2.65;;
47239;SDS011;32978;53.586;10.052;2022-08-04T06:28:54;6.18;;;2.70;;
47239;SDS011;32978;53.586;10.052;2022-08-04T06:33:51;5.85;;;2.38;;
47239;SDS011;32978;53.586;10.052;2022-08-04T06:38:50;9.77;;;2.42;;
47239;SDS011;32978;53.586;10.052;2022-08-04T06:43:53;8.27;;;2.67;;
47239;SDS011;32978;53.586;10.052;2022-08-04T06:48:50;4.85;;;2.03;;
47239;SDS011;32978;53.586;10.052;2022-08-04T06:53:47;7.22;;;2.65;;
47239;SDS011;32978;53.586;10.052;2022-08-04T06:58:44;7.43;;;3.03;;
47239;SDS011;32978;53.586;10.052;2022-08-04T07:03:42;6.63;;;2.50;;
47239;SDS011;32978;53.586;10.052;2022-08-04T07:08:38;7.32;;;2.55;;
47239;SDS011;32978;53.586;10.052;2022-08-04T07:13:35;5.88;;;2.13;;
47239;SDS011;32978;53.586;10.052;2022-08-04T07:18:32;8.57;;;2.65;;
47239;SDS011;32978;53.586;10.052;2022-08-04T07:23:29;6.20;;;2.25;;
47239;SDS011;32978;53.586;10.052;2022-08-04T07:28:26;6.97;;;2.50;;
47239;SDS011;32978;53.586;10.052;2022-08-04T07:33:23;11.15;;;3.35;;
47239;SDS011;32978;53.586;10.052;2022-08-04T07:38:21;7.28;;;2.67;;
47239;SDS011;32978;53.586;10.052;2022-08-04T07:48:19;7.80;;;3.33;;
47239;SDS011;32978;53.586;10.052;2022-08-04T07:53:18;8.50;;;2.35;;
47239;SDS011;32978;53.586;10.052;2022-08-04T07:58:35;6.60;;;2.60;;
47239;SDS011;32978;53.586;10.052;2022-08-04T08:03:32;8.48;;;3.00;;
47239;SDS011;32978;53.586;10.052;2022-08-04T08:08:29;6.32;;;2.50;;
47239;SDS011;32978;53.586;10.052;2022-08-04T08:13:26;5.45;;;2.35;;
47239;SDS011;32978;53.586;10.052;2022-08-04T08:18:29;6.65;;;2.38;;
47239;SDS011;32978;53.586;10.052;2022-08-04T08:23:25;7.90;;;2.90;;
47239;SDS011;32978;53.586;10.052;2022-08-04T08:28:25;5.70;;;2.90;;
47239;SDS011;32978;53.586;10.052;2022-08-04T08:33:22;4.82;;;2.60;;
47239;SDS011;32978;53.586;10.052;2022-08-04T08:38:20;5.53;;;3.00;;
47239;SDS011;32978;53.586;10.052;2022-08-04T08:43:28;9.90;;;3.37;;
47239;SDS011;32978;53.586;10.052;2022-08-04T08:48:53;6.35;;;3.28;;
47239;SDS011;32978;53.586;10.052;2022-08-04T08:58:57;6.90;;;3.53;;
47239;SDS011;32978;53.586;10.052;2022-08-04T09:14:33;9.85;;;4.90;;
47239;SDS011;32978;53.586;10.052;2022-08-04T09:19:34;5.95;;;4.20;;
47239;SDS011;32978;53.586;10.052;2022-08-04T09:29:46;6.40;;;4.80;;
47239;SDS011;32978;53.586;10.052;2022-08-04T09:40:06;6.05;;;5.40;;
47239;SDS011;32978;53.586;10.052;2022-08-04T09:45:18;7.38;;;5.47;;
47239;SDS011;32978;53.586;10.052;2022-08-04T09:55:29;5.95;;;5.45;;
47239;SDS011;32978;53.586;10.052;2022-08-04T10:00:33;7.10;;;6.20;;
47239;SDS011;32978;53.586;10.052;2022-08-04T10:21:51;10.52;;;8.02;;
47239;SDS011;32978;53.586;10.052;2022-08-04T10:26:28;8.95;;;8.10;;
47239;SDS011;32978;53.586;10.052;2022-08-04T10:31:27;9.25;;;8.02;;
47239;SDS011;32978;53.586;10.052;2022-08-04T10:36:26;9.70;;;8.70;;
47239;SDS011;32978;53.586;10.052;2022-08-04T10:41:28;10.15;;;9.35;;
47239;SDS011;32978;53.586;10.052;2022-08-04T10:46:28;9.20;;;8.50;;
47239;SDS011;32978;53.586;10.052;2022-08-04T10:51:34;10.27;;;9.40;;
47239;SDS011;32978;53.586;10.052;2022-08-04T10:56:55;9.85;;;8.93;;
47239;SDS011;32978;53.586;10.052;2022-08-04T11:01:58;10.18;;;9.32;;
47239;SDS011;32978;53.586;10.052;2022-08-04T11:06:59;9.95;;;9.25;;
47239;SDS011;32978;53.586;10.052;2022-08-04T11:11:57;9.80;;;8.93;;
47239;SDS011;32978;53.586;10.052;2022-08-04T11:17:04;10.52;;;9.82;;
47239;SDS011;32978;53.586;10.052;2022-08-04T11:22:10;10.85;;;9.27;;
47239;SDS011;32978;53.586;10.052;2022-08-04T11:27:18;9.95;;;9.05;;
47239;SDS011;32978;53.586;10.052;2022-08-04T11:32:24;9.90;;;9.10;;
47239;SDS011;32978;53.586;10.052;2022-08-04T11:37:26;10.35;;;9.63;;
47239;SDS011;32978;53.586;10.052;2022-08-04T11:42:27;9.43;;;8.65;;
47239;SDS011;32978;53.586;10.052;2022-08-04T11:47:26;10.13;;;9.27;;
47239;SDS011;32978;53.586;10.052;2022-08-04T11:52:26;10.07;;;9.27;;
47239;SDS011;32978;53.586;10.052;2022-08-04T11:57:23;10.40;;;9.48;;
47239;SDS011;32978;53.586;10.052;2022-08-04T12:08:02;9.65;;;8.88;;
47239;SDS011;32978;53.586;10.052;2022-08-04T12:13:05;9.90;;;9.02;;
47239;SDS011;32978;53.586;10.052;2022-08-04T12:23:02;9.50;;;8.80;;
47239;SDS011;32978;53.586;10.052;2022-08-04T12:28:04;9.88;;;9.18;;
47239;SDS011;32978;53.586;10.052;2022-08-04T12:33:03;9.05;;;8.45;;
47239;SDS011;32978;53.586;10.052;2022-08-04T12:43:02;9.95;;;9.25;;
47239;SDS011;32978;53.586;10.052;2022-08-04T12:48:01;10.40;;;9.35;;
47239;SDS011;32978;53.586;10.052;2022-08-04T12:52:59;9.15;;;8.55;;
47239;SDS011;32978;53.586;10.052;2022-08-04T12:57:59;9.75;;;8.88;;
47239;SDS011;32978;53.586;10.052;2022-08-04T13:02:57;12.57;;;8.73;;
47239;SDS011;32978;53.586;10.052;2022-08-04T13:07:55;9.10;;;8.45;;
47239;SDS011;32978;53.586;10.052;2022-08-04T13:12:54;7.95;;;7.32;;
47239;SDS011;32978;53.586;10.052;2022-08-04T13:18:00;7.53;;;6.93;;
47239;SDS011;32978;53.586;10.052;2022-08-04T13:28:00;7.55;;;6.80;;
47239;SDS011;32978;53.586;10.052;2022-08-04T13:33:00;7.88;;;7.22;;
47239;SDS011;32978;53.586;10.052;2022-08-04T13:37:57;7.15;;;6.55;;
47239;SDS011;32978;53.586;10.052;2022-08-04T13:42:54;7.00;;;6.40;;
47239;SDS011;32978;53.586;10.052;2022-08-04T13:47:57;6.93;;;6.43;;
47239;SDS011;32978;53.586;10.052;2022-08-04T13:53:10;7.38;;;6.68;;
47239;SDS011;32978;53.586;10.052;2022-08-04T13:58:41;8.25;;;7.55;;
47239;SDS011;32978;53.586;10.052;2022-08-04T14:03:37;7.20;;;6.60;;
47239;SDS011;32978;53.586;10.052;2022-08-04T14:08:54;7.13;;;6.53;;
47239;SDS011;32978;53.586;10.052;2022-08-04T14:13:50;7.57;;;6.97;;
47239;SDS011;32978;53.586;10.052;2022-08-04T14:18:47;7.20;;;6.55;;
47239;SDS011;32978;53.586;10.052;2022-08-04T14:23:54;7.50;;;6.80;;
47239;SDS011;32978;53.586;10.052;2022-08-04T14:28:51;7.00;;;6.40;;
47239;SDS011;32978;53.586;10.052;2022-08-04T14:34:08;7.20;;;6.60;;
47239;SDS011;32978;53.586;10.052;2022-08-04T14:39:14;8.40;;;7.07;;
47239;SDS011;32978;53.586;10.052;2022-08-04T14:44:10;8.35;;;6.95;;
47239;SDS011;32978;53.586;10.052;2022-08-04T14:49:07;7.47;;;6.85;;
47239;SDS011;32978;53.586;10.052;2022-08-04T14:54:05;30.65;;;6.60;;
47239;SDS011;32978;53.586;10.052;2022-08-04T14:59:09;7.40;;;6.78;;
47239;SDS011;32978;53.586;10.052;2022-08-04T15:04:06;9.87;;;6.87;;
47239;SDS011;32978;53.586;10.052;2022-08-04T15:09:07;9.13;;;6.68;;
47239;SDS011;32978;53.586;10.052;2022-08-04T15:14:04;7.00;;;6.35;;
47239;SDS011;32978;53.586;10.052;2022-08-04T15:19:00;8.27;;;5.45;;
47239;SDS011;32978;53.586;10.052;2022-08-04T15:23:57;12.77;;;5.53;;
47239;SDS011;32978;53.586;10.052;2022-08-04T15:28:55;15.60;;;5.00;;
47239;SDS011;32978;53.586;10.052;2022-08-04T15:33:53;13.38;;;4.45;;
47239;SDS011;32978;53.586;10.052;2022-08-04T15:48:50;12.15;;;4.32;;
47239;SDS011;32978;53.586;10.052;2022-08-04T15:58:59;12.68;;;5.07;;
47239;SDS011;32978;53.586;10.052;2022-08-04T16:03:55;11.77;;;4.63;;
47239;SDS011;32978;53.586;10.052;2022-08-04T16:08:57;9.18;;;4.45;;
47239;SDS011;32978;53.586;10.052;2022-08-04T16:34:17;12.02;;;3.85;;
47239;SDS011;32978;53.586;10.052;2022-08-04T16:39:34;7.55;;;3.08;;
47239;SDS011;32978;53.586;10.052;2022-08-04T16:44:57;13.27;;;4.32;;
47239;SDS011;32978;53.586;10.052;2022-08-04T16:50:02;9.90;;;4.28;;
47239;SDS011;32978;53.586;10.052;2022-08-04T16:54:58;10.10;;;4.40;;
47239;SDS011;32978;53.586;10.052;2022-08-04T16:59:55;9.57;;;3.80;;
47239;SDS011;32978;53.586;10.052;2022-08-04T17:04:54;12.32;;;3.28;;
47239;SDS011;32978;53.586;10.052;2022-08-04T17:10:03;8.68;;;3.60;;
47239;SDS011;32978;53.586;10.052;2022-08-04T17:14:59;7.13;;;2.75;;
47239;SDS011;32978;53.586;10.052;2022-08-04T17:19:56;8.35;;;3.45;;
47239;SDS011;32978;53.586;10.052;2022-08-04T17:24:53;11.70;;;3.72;;
47239;SDS011;32978;53.586;10.052;2022-08-04T17:29:54;12.70;;;5.43;;
47239;SDS011;32978;53.586;10.052;2022-08-04T17:34:54;9.57;;;3.42;;
47239;SDS011;32978;53.586;10.052;2022-08-04T17:39:52;10.85;;;4.35;;
47239;SDS011;32978;53.586;10.052;2022-08-04T17:45:07;10.63;;;3.28;;
47239;SDS011;32978;53.586;10.052;2022-08-04T17:50:25;9.25;;;3.50;;
47239;SDS011;32978;53.586;10.052;2022-08-04T17:55:21;9.00;;;4.13;;
47239;SDS011;32978;53.586;10.052;2022-08-04T18:00:17;7.72;;;3.65;;
47239;SDS011;32978;53.586;10.052;2022-08-04T18:05:24;9.80;;;4.57;;
47239;SDS011;32978;53.586;10.052;2022-08-04T18:10:38;9.13;;;3.50;;
47239;SDS011;32978;53.586;10.052;2022-08-04T18:16:01;9.00;;;3.42;;
47239;SDS011;32978;53.586;10.052;2022-08-04T18:20:58;13.07;;;4.75;;
47239;SDS011;32978;53.586;10.052;2022-08-04T18:26:00;7.28;;;3.20;;
47239;SDS011;32978;53.586;10.052;2022-08-04T18:30:57;10.75;;;4.25;;
47239;SDS011;32978;53.586;10.052;2022-08-04T18:35:54;11.88;;;4.20;;
47239;SDS011;32978;53.586;10.052;2022-08-04T18:41:10;6.88;;;3.08;;
47239;SDS011;32978;53.586;10.052;2022-08-04T18:46:07;9.70;;;5.53;;
47239;SDS011;32978;53.586;10.052;2022-08-04T18:51:10;7.30;;;3.05;;
47239;SDS011;32978;53.586;10.052;2022-08-04T18:56:29;10.40;;;3.50;;
47239;SDS011;32978;53.586;10.052;2022-08-04T19:01:27;7.65;;;3.53;;
47239;SDS011;32978;53.586;10.052;2022-08-04T19:06:25;5.70;;;2.55;;
47239;SDS011;32978;53.586;10.052;2022-08-04T19:11:22;9.65;;;3.85;;
47239;SDS011;32978;53.586;10.052;2022-08-04T19:16:39;7.85;;;3.60;;
47239;SDS011;32978;53.586;10.052;2022-08-04T19:21:40;9.88;;;3.53;;
47239;SDS011;32978;53.586;10.052;2022-08-04T19:26:56;7.18;;;2.50;;
47239;SDS011;32978;53.586;10.052;2022-08-04T19:31:53;9.13;;;3.03;;
47239;SDS011;32978;53.586;10.052;2022-08-04T19:36:51;7.88;;;3.28;;
47239;SDS011;32978;53.586;10.052;2022-08-04T19:41:47;5.25;;;2.70;;
47239;SDS011;32978;53.586;10.052;2022-08-04T19:47:01;6.20;;;2.95;;
47239;SDS011;32978;53.586;10.052;2022-08-04T19:52:18;10.05;;;2.90;;
47239;SDS011;32978;53.586;10.052;2022-08-04T19:57:30;10.45;;;2.55;;
47239;SDS011;32978;53.586;10.052;2022-08-04T20:02:31;5.78;;;2.50;;
47239;SDS011;32978;53.586;10.052;2022-08-04T20:07:30;5.68;;;2.30;;
47239;SDS011;32978;53.586;10.052;2022-08-04T20:12:29;8.80;;;3.65;;
47239;SDS011;32978;53.586;10.052;2022-08-04T20:17:25;5.57;;;2.65;;
47239;SDS011;32978;53.586;10.052;2022-08-04T20:22:42;5.63;;;2.90;;
47239;SDS011;32978;53.586;10.052;2022-08-04T20:27:47;6.43;;;2.47;;
47239;SDS011;32978;53.586;10.052;2022-08-04T20:32:55;7.07;;;2.85;;
47239;SDS011;32978;53.586;10.052;2022-08-04T20:37:52;6.93;;;2.65;;
47239;SDS011;32978;53.586;10.052;2022-08-04T20:42:55;9.38;;;2.53;;
47239;SDS011;32978;53.586;10.052;2022-08-04T20:47:53;5.47;;;2.03;;
47239;SDS011;32978;53.586;10.052;2022-08-04T20:52:49;9.98;;;3.00;;
47239;SDS011;32978;53.586;10.052;2022-08-04T20:57:45;7.05;;;2.97;;
47239;SDS011;32978;53.586;10.052;2022-08-04T21:02:45;9.23;;;2.60;;
47239;SDS011;32978;53.586;10.052;2022-08-04T21:07:41;6.10;;;2.90;;
47239;SDS011;32978;53.586;10.052;2022-08-04T21:12:44;6.03;;;2.90;;
47239;SDS011;32978;53.586;10.052;2022-08-04T21:17:45;9.02;;;4.25;;
47239;SDS011;32978;53.586;10.052;2022-08-04T21:22:54;17.38;;;5.65;;
47239;SDS011;32978;53.586;10.052;2022-08-04T21:32:59;10.88;;;5.50;;
47239;SDS011;32978;53.586;10.052;2022-08-04T21:37:55;16.05;;;6.38;;
47239;SDS011;32978;53.586;10.052;2022-08-04T21:42:56;12.00;;;6.07;;
47239;SDS011;32978;53.586;10.052;2022-08-04T21:47:53;22.17;;;6.97;;
47239;SDS011;32978;53.586;10.052;2022-08-04T21:52:49;12.35;;;6.20;;
47239;SDS011;32978;53.586;10.052;2022-08-04T21:57:46;15.02;;;7.07;;
47239;SDS011;32978;53.586;10.052;2022-08-04T22:02:45;16.00;;;6.90;;
47239;SDS011;32978;53.586;10.052;2022-08-04T22:07:48;19.60;;;7.47;;
47239;SDS011;32978;53.586;10.052;2022-08-04T22:12:46;15.90;;;7.57;;
47239;SDS011;32978;53.586;10.052;2022-08-04T22:17:47;22.30;;;8.52;;
47239;SDS011;32978;53.586;10.052;2022-08-04T22:22:43;18.92;;;8.93;;
47239;SDS011;32978;53.586;10.052;2022-08-04T22:27:46;27.35;;;10.05;;
47239;SDS011;32978;53.586;10.052;2022-08-04T22:32:56;21.08;;;9.57;;
47239;SDS011;32978;53.586;10.052;2022-08-04T22:37:54;18.35;;;8.93;;
47239;SDS011;32978;53.586;10.052;2022-08-04T22:43:04;19.95;;;8.88;;
47239;SDS011;32978;53.586;10.052;2022-08-04T22:48:20;21.05;;;8.25;;
47239;SDS011;32978;53.586;10.052;2022-08-04T22:53:17;20.88;;;9.43;;
47239;SDS011;32978;53.586;10.052;2022-08-04T22:58:15;20.40;;;8.57;;
47239;SDS011;32978;53.586;10.052;2022-08-04T23:03:12;22.40;;;8.57;;
47239;SDS011;32978;53.586;10.052;2022-08-04T23:08:29;17.60;;;9.85;;
47239;SDS011;32978;53.586;10.052;2022-08-04T23:13:25;16.98;;;9.07;;
47239;SDS011;32978;53.586;10.052;2022-08-04T23:18:22;16.08;;;9.30;;
47239;SDS011;32978;53.586;10.052;2022-08-04T23:23:21;18.55;;;8.85;;
47239;SDS011;32978;53.586;10.052;2022-08-04T23:28:18;20.77;;;8.95;;
47239;SDS011;32978;53.586;10.052;2022-08-04T23:33:14;21.98;;;8.48;;
47239;SDS011;32978;53.586;10.052;2022-08-04T23:38:10;15.18;;;7.85;;
47239;SDS011;32978;53.586;10.052;2022-08-04T23:43:27;14.55;;;8.50;;
47239;SDS011;32978;53.586;10.052;2022-08-04T23:48:43;17.00;;;6.85;;
47239;SDS011;32978;53.586;10.052;2022-08-04T23:53:40;16.90;;;7.55;;
47239;SDS011;32978;53.586;10.052;2022-08-04T23:58:57;12.40;;;6.00;;
